sensor_id;sensor_type;location;lat;lon;timestamp;noise_LAeq;noise_LA_min;noise_LA_max;noise_LA01;noise_LA95
45964;Laerm;31671;48.092;11.842;2023-03-14T00:02:09;29.17;27.88;30.79;;
45964;Laerm;31671;48.092;11.842;2023-03-14T00:04:35;29.21;27.70;30.86;;
45964;Laerm;31671;48.092;11.842;2023-03-14T00:07:01;29.14;27.86;30.92;;
45964;Laerm;31671;48.092;11.842;2023-03-14T00:09:26;29.13;27.65;30.39;;
45964;Laerm;31671;48.092;11.842;2023-03-14T00:11:52;29.12;27.68;30.45;;
45964;Laerm;31671;48.092;11.842;2023-03-14T00:14:18;30.04;27.85;37.06;;
45964;Laerm;31671;48.092;11.842;2023-03-14T00:16:47;29.12;27.81;30.51;;
45964;Laerm;31671;48.092;11.842;2023-03-14T00:19:12;29.19;27.93;30.91;;
45964;Laerm;31671;48.092;11.842;2023-03-14T00:21:38;29.15;27.75;30.37;;
45964;Laerm;31671;48.092;11.842;2023-03-14T00:24:04;29.14;27.81;30.31;;
45964;Laerm;31671;48.092;11.842;2023-03-14T00:26:30;29.05;27.79;30.17;;
45964;Laerm;31671;48.092;11.842;2023-03-14T00:28:55;29.13;27.69;30.26;;
45964;Laerm;31671;48.092;11.842;2023-03-14T00:31:21;29.09;27.94;31.17;;
45964;Laerm;31671;48.092;11.842;2023-03-14T00:33:47;29.07;27.79;30.27;;
45964;Laerm;31671;48.092;11.842;2023-03-14T00:36:14;29.05;27.71;30.30;;
45964;Laerm;31671;48.092;11.842;2023-03-14T00:38:40;29.15;27.77;30.41;;
45964;Laerm;31671;48.092;11.842;2023-03-14T00:41:07;29.13;27.77;31.19;;
45964;Laerm;31671;48.092;11.842;2023-03-14T00:43:33;29.13;27.93;30.23;;
45964;Laerm;31671;48.092;11.842;2023-03-14T00:45:59;29.09;27.77;30.37;;
45964;Laerm;31671;48.092;11.842;2023-03-14T00:48:26;29.08;27.62;30.51;;
45964;Laerm;31671;48.092;11.842;2023-03-14T00:50:52;29.10;27.73;30.33;;
45964;Laerm;31671;48.092;11.842;2023-03-14T00:53:18;29.07;27.65;30.26;;
45964;Laerm;31671;48.092;11.842;2023-03-14T00:55:44;29.10;27.73;30.36;;
45964;Laerm;31671;48.092;11.842;2023-03-14T00:58:11;29.61;27.68;34.30;;
45964;Laerm;31671;48.092;11.842;2023-03-14T01:00:37;29.11;27.36;31.00;;
45964;Laerm;31671;48.092;11.842;2023-03-14T01:03:02;29.20;27.69;41.63;;
45964;Laerm;31671;48.092;11.842;2023-03-14T01:05:28;29.08;27.77;32.51;;
45964;Laerm;31671;48.092;11.842;2023-03-14T01:07:54;29.09;27.88;30.34;;
45964;Laerm;31671;48.092;11.842;2023-03-14T01:10:19;29.09;27.62;30.28;;
45964;Laerm;31671;48.092;11.842;2023-03-14T01:12:45;29.12;27.75;30.31;;
45964;Laerm;31671;48.092;11.842;2023-03-14T01:15:11;29.12;27.74;36.53;;
45964;Laerm;31671;48.092;11.842;2023-03-14T01:17:36;29.29;27.79;33.12;;
45964;Laerm;31671;48.092;11.842;2023-03-14T01:20:02;29.56;27.90;32.99;;
45964;Laerm;31671;48.092;11.842;2023-03-14T01:22:28;29.04;27.84;30.28;;
45964;Laerm;31671;48.092;11.842;2023-03-14T01:24:53;29.06;27.60;30.26;;
45964;Laerm;31671;48.092;11.842;2023-03-14T01:27:19;29.24;27.99;44.30;;
45964;Laerm;31671;48.092;11.842;2023-03-14T01:29:45;29.32;28.01;31.81;;
45964;Laerm;31671;48.092;11.842;2023-03-14T01:32:11;29.34;27.85;36.57;;
45964;Laerm;31671;48.092;11.842;2023-03-14T01:34:36;29.46;27.97;32.00;;
45964;Laerm;31671;48.092;11.842;2023-03-14T01:37:02;29.61;28.14;33.99;;
45964;Laerm;31671;48.092;11.842;2023-03-14T01:39:28;29.75;28.48;38.29;;
45964;Laerm;31671;48.092;11.842;2023-03-14T01:41:54;30.26;28.21;49.54;;
45964;Laerm;31671;48.092;11.842;2023-03-14T01:44:20;29.96;28.15;38.97;;
45964;Laerm;31671;48.092;11.842;2023-03-14T01:46:46;30.16;28.78;36.64;;
45964;Laerm;31671;48.092;11.842;2023-03-14T01:49:21;30.20;28.60;33.76;;
45964;Laerm;31671;48.092;11.842;2023-03-14T01:51:59;30.37;28.64;44.38;;
45964;Laerm;31671;48.092;11.842;2023-03-14T01:56:55;30.37;28.38;44.13;;
45964;Laerm;31671;48.092;11.842;2023-03-14T01:59:22;30.42;28.73;41.35;;
45964;Laerm;31671;48.092;11.842;2023-03-14T02:01:49;29.93;28.18;37.07;;
45964;Laerm;31671;48.092;11.842;2023-03-14T02:04:16;29.90;28.38;39.38;;
45964;Laerm;31671;48.092;11.842;2023-03-14T02:06:57;29.64;28.21;44.85;;
45964;Laerm;31671;48.092;11.842;2023-03-14T02:09:27;29.48;28.02;35.43;;
45964;Laerm;31671;48.092;11.842;2023-03-14T02:11:53;29.85;28.25;41.25;;
45964;Laerm;31671;48.092;11.842;2023-03-14T02:14:37;29.52;27.88;35.26;;
45964;Laerm;31671;48.092;11.842;2023-03-14T02:17:21;30.24;28.30;42.77;;
45964;Laerm;31671;48.092;11.842;2023-03-14T02:22:44;32.78;29.06;56.67;;
45964;Laerm;31671;48.092;11.842;2023-03-14T02:25:17;33.24;30.43;42.37;;
45964;Laerm;31671;48.092;11.842;2023-03-14T02:27:46;32.19;29.34;52.63;;
45964;Laerm;31671;48.092;11.842;2023-03-14T02:30:18;30.50;28.27;43.82;;
45964;Laerm;31671;48.092;11.842;2023-03-14T02:32:46;31.50;28.57;51.92;;
45964;Laerm;31671;48.092;11.842;2023-03-14T02:35:24;30.84;28.73;47.07;;
45964;Laerm;31671;48.092;11.842;2023-03-14T02:37:55;30.72;28.85;40.46;;
45964;Laerm;31671;48.092;11.842;2023-03-14T02:40:25;31.21;28.89;50.23;;
45964;Laerm;31671;48.092;11.842;2023-03-14T02:42:52;31.52;28.82;56.63;;
45964;Laerm;31671;48.092;11.842;2023-03-14T02:47:46;32.32;29.68;50.89;;
45964;Laerm;31671;48.092;11.842;2023-03-14T02:50:18;31.50;28.46;44.92;;
45964;Laerm;31671;48.092;11.842;2023-03-14T02:52:45;34.88;28.37;63.74;;
45964;Laerm;31671;48.092;11.842;2023-03-14T02:55:12;33.67;28.75;56.64;;
45964;Laerm;31671;48.092;11.842;2023-03-14T02:57:40;30.03;28.23;46.38;;
45964;Laerm;31671;48.092;11.842;2023-03-14T03:00:06;30.95;28.11;55.18;;
45964;Laerm;31671;48.092;11.842;2023-03-14T03:02:35;31.54;27.95;58.69;;
45964;Laerm;31671;48.092;11.842;2023-03-14T03:05:00;31.36;28.06;45.30;;
45964;Laerm;31671;48.092;11.842;2023-03-14T03:07:26;31.98;27.77;55.37;;
45964;Laerm;31671;48.092;11.842;2023-03-14T03:09:54;29.67;27.76;49.22;;
45964;Laerm;31671;48.092;11.842;2023-03-14T03:12:19;31.54;27.32;50.70;;
45964;Laerm;31671;48.092;11.842;2023-03-14T03:14:45;42.70;27.84;63.55;;
45964;Laerm;31671;48.092;11.842;2023-03-14T03:17:11;36.13;27.65;56.38;;
45964;Laerm;31671;48.092;11.842;2023-03-14T03:19:37;48.05;27.87;70.05;;
45964;Laerm;31671;48.092;11.842;2023-03-14T03:22:03;41.49;27.96;66.68;;
45964;Laerm;31671;48.092;11.842;2023-03-14T03:24:29;49.14;28.51;72.33;;
45964;Laerm;31671;48.092;11.842;2023-03-14T03:26:55;46.56;28.08;67.69;;
45964;Laerm;31671;48.092;11.842;2023-03-14T03:29:20;45.34;27.90;67.85;;
45964;Laerm;31671;48.092;11.842;2023-03-14T03:31:46;51.25;27.84;71.57;;
45964;Laerm;31671;48.092;11.842;2023-03-14T03:34:12;36.67;27.75;58.63;;
45964;Laerm;31671;48.092;11.842;2023-03-14T03:36:38;42.38;27.65;65.68;;
45964;Laerm;31671;48.092;11.842;2023-03-14T03:39:04;41.61;27.70;70.18;;
45964;Laerm;31671;48.092;11.842;2023-03-14T03:41:30;51.33;27.79;70.72;;
45964;Laerm;31671;48.092;11.842;2023-03-14T03:43:56;44.59;27.68;68.57;;
45964;Laerm;31671;48.092;11.842;2023-03-14T03:46:22;30.02;27.64;43.07;;
45964;Laerm;31671;48.092;11.842;2023-03-14T03:48:47;30.09;27.14;45.92;;
45964;Laerm;31671;48.092;11.842;2023-03-14T03:51:14;30.70;27.60;56.79;;
45964;Laerm;31671;48.092;11.842;2023-03-14T03:53:40;32.72;27.65;57.53;;
45964;Laerm;31671;48.092;11.842;2023-03-14T03:56:09;31.42;27.52;55.23;;
45964;Laerm;31671;48.092;11.842;2023-03-14T03:58:35;38.20;27.91;66.35;;
45964;Laerm;31671;48.092;11.842;2023-03-14T04:01:02;29.86;27.67;51.59;;
45964;Laerm;31671;48.092;11.842;2023-03-14T04:03:27;36.16;27.79;59.10;;
45964;Laerm;31671;48.092;11.842;2023-03-14T04:05:59;43.86;27.78;70.77;;
45964;Laerm;31671;48.092;11.842;2023-03-14T04:08:25;35.39;27.64;60.08;;
45964;Laerm;31671;48.092;11.842;2023-03-14T04:10:53;35.96;27.90;61.14;;
45964;Laerm;31671;48.092;11.842;2023-03-14T04:13:29;34.04;27.85;61.76;;
45964;Laerm;31671;48.092;11.842;2023-03-14T04:15:55;32.31;27.85;59.68;;
45964;Laerm;31671;48.092;11.842;2023-03-14T04:18:24;31.76;27.69;53.18;;
45964;Laerm;31671;48.092;11.842;2023-03-14T04:20:50;40.26;27.95;70.79;;
45964;Laerm;31671;48.092;11.842;2023-03-14T04:23:16;31.57;27.89;57.84;;
45964;Laerm;31671;48.092;11.842;2023-03-14T04:25:42;33.90;27.99;59.18;;
45964;Laerm;31671;48.092;11.842;2023-03-14T04:28:08;34.03;28.08;55.12;;
45964;Laerm;31671;48.092;11.842;2023-03-14T04:30:34;34.71;27.75;58.15;;
45964;Laerm;31671;48.092;11.842;2023-03-14T04:33:08;37.66;27.66;61.05;;
45964;Laerm;31671;48.092;11.842;2023-03-14T04:35:39;33.38;27.74;61.31;;
45964;Laerm;31671;48.092;11.842;2023-03-14T04:38:08;30.18;27.93;47.15;;
45964;Laerm;31671;48.092;11.842;2023-03-14T04:40:36;38.19;27.63;67.77;;
45964;Laerm;31671;48.092;11.842;2023-03-14T04:43:04;30.50;27.84;56.17;;
45964;Laerm;31671;48.092;11.842;2023-03-14T04:45:30;42.82;28.01;63.53;;
45964;Laerm;31671;48.092;11.842;2023-03-14T04:47:58;29.90;27.91;48.80;;
45964;Laerm;31671;48.092;11.842;2023-03-14T04:50:24;40.86;27.72;70.21;;
45964;Laerm;31671;48.092;11.842;2023-03-14T04:52:49;31.77;27.82;51.97;;
45964;Laerm;31671;48.092;11.842;2023-03-14T04:55:15;29.91;27.86;38.52;;
45964;Laerm;31671;48.092;11.842;2023-03-14T04:57:41;30.06;27.52;43.43;;
45964;Laerm;31671;48.092;11.842;2023-03-14T05:00:09;32.25;27.64;53.72;;
45964;Laerm;31671;48.092;11.842;2023-03-14T05:03:16;37.55;27.88;62.05;;
45964;Laerm;31671;48.092;11.842;2023-03-14T05:05:55;32.81;28.00;53.89;;
45964;Laerm;31671;48.092;11.842;2023-03-14T05:08:51;29.72;27.76;41.63;;
45964;Laerm;31671;48.092;11.842;2023-03-14T05:11:16;29.54;27.84;43.04;;
45964;Laerm;31671;48.092;11.842;2023-03-14T05:14:08;29.54;27.66;37.09;;
45964;Laerm;31671;48.092;11.842;2023-03-14T05:17:03;29.89;27.87;47.56;;
45964;Laerm;31671;48.092;11.842;2023-03-14T05:19:39;32.11;27.91;51.38;;
45964;Laerm;31671;48.092;11.842;2023-03-14T05:22:24;30.91;27.68;50.70;;
45964;Laerm;31671;48.092;11.842;2023-03-14T05:25:08;29.73;28.02;39.98;;
45964;Laerm;31671;48.092;11.842;2023-03-14T05:27:54;35.63;27.94;57.74;;
45964;Laerm;31671;48.092;11.842;2023-03-14T05:30:30;31.12;28.13;46.41;;
45964;Laerm;31671;48.092;11.842;2023-03-14T05:33:13;31.59;27.93;51.48;;
45964;Laerm;31671;48.092;11.842;2023-03-14T05:35:57;29.61;27.75;36.56;;
45964;Laerm;31671;48.092;11.842;2023-03-14T05:38:48;29.45;28.08;42.07;;
45964;Laerm;31671;48.092;11.842;2023-03-14T05:41:28;30.86;27.67;48.03;;
45964;Laerm;31671;48.092;11.842;2023-03-14T05:44:13;29.37;27.46;41.52;;
45964;Laerm;31671;48.092;11.842;2023-03-14T05:46:53;30.10;27.89;43.15;;
45964;Laerm;31671;48.092;11.842;2023-03-14T05:49:39;29.53;27.74;34.60;;
45964;Laerm;31671;48.092;11.842;2023-03-14T05:52:27;29.89;27.80;38.49;;
45964;Laerm;31671;48.092;11.842;2023-03-14T05:55:07;29.89;27.74;42.18;;
45964;Laerm;31671;48.092;11.842;2023-03-14T05:57:53;29.57;27.94;39.37;;
45964;Laerm;31671;48.092;11.842;2023-03-14T06:00:42;29.31;27.72;32.15;;
45964;Laerm;31671;48.092;11.842;2023-03-14T06:03:29;29.51;27.65;34.57;;
45964;Laerm;31671;48.092;11.842;2023-03-14T06:05:55;29.67;27.77;45.34;;
45964;Laerm;31671;48.092;11.842;2023-03-14T06:08:22;29.70;27.69;34.51;;
45964;Laerm;31671;48.092;11.842;2023-03-14T06:10:48;29.99;27.69;36.10;;
45964;Laerm;31671;48.092;11.842;2023-03-14T06:13:14;29.75;27.88;41.19;;
45964;Laerm;31671;48.092;11.842;2023-03-14T06:15:39;29.64;27.66;39.17;;
45964;Laerm;31671;48.092;11.842;2023-03-14T06:18:05;29.66;27.73;40.47;;
45964;Laerm;31671;48.092;11.842;2023-03-14T06:20:31;30.25;27.70;44.57;;
45964;Laerm;31671;48.092;11.842;2023-03-14T06:22:57;30.65;27.85;41.30;;
45964;Laerm;31671;48.092;11.842;2023-03-14T06:25:22;29.62;27.69;33.05;;
45964;Laerm;31671;48.092;11.842;2023-03-14T06:27:49;29.44;27.68;34.66;;
45964;Laerm;31671;48.092;11.842;2023-03-14T06:30:16;30.02;27.86;41.13;;
45964;Laerm;31671;48.092;11.842;2023-03-14T06:32:42;29.84;27.90;45.91;;
45964;Laerm;31671;48.092;11.842;2023-03-14T06:35:10;29.47;27.85;33.41;;
45964;Laerm;31671;48.092;11.842;2023-03-14T06:37:39;29.97;27.63;46.52;;
45964;Laerm;31671;48.092;11.842;2023-03-14T06:40:06;30.02;27.83;41.70;;
45964;Laerm;31671;48.092;11.842;2023-03-14T06:42:54;29.62;27.94;34.84;;
45964;Laerm;31671;48.092;11.842;2023-03-14T06:45:22;29.74;27.72;37.90;;
45964;Laerm;31671;48.092;11.842;2023-03-14T06:47:47;29.20;27.84;33.68;;
45964;Laerm;31671;48.092;11.842;2023-03-14T06:50:13;29.64;27.85;33.53;;
45964;Laerm;31671;48.092;11.842;2023-03-14T06:52:40;33.61;27.92;45.39;;
45964;Laerm;31671;48.092;11.842;2023-03-14T06:55:06;29.52;28.08;32.96;;
45964;Laerm;31671;48.092;11.842;2023-03-14T06:57:31;29.82;27.99;39.57;;
45964;Laerm;31671;48.092;11.842;2023-03-14T06:59:57;29.40;27.87;32.48;;
45964;Laerm;31671;48.092;11.842;2023-03-14T07:02:23;29.51;27.81;32.91;;
45964;Laerm;31671;48.092;11.842;2023-03-14T07:04:52;29.56;27.72;34.41;;
45964;Laerm;31671;48.092;11.842;2023-03-14T07:07:18;30.07;27.90;37.98;;
45964;Laerm;31671;48.092;11.842;2023-03-14T07:09:44;30.31;27.89;42.56;;
45964;Laerm;31671;48.092;11.842;2023-03-14T07:12:09;29.94;27.96;39.18;;
45964;Laerm;31671;48.092;11.842;2023-03-14T07:14:35;30.23;27.69;38.14;;
45964;Laerm;31671;48.092;11.842;2023-03-14T07:17:01;29.76;27.99;32.82;;
45964;Laerm;31671;48.092;11.842;2023-03-14T07:19:26;29.38;27.83;31.89;;
45964;Laerm;31671;48.092;11.842;2023-03-14T07:21:52;29.42;27.74;31.47;;
45964;Laerm;31671;48.092;11.842;2023-03-14T07:24:22;29.66;28.05;34.29;;
45964;Laerm;31671;48.092;11.842;2023-03-14T07:26:48;29.57;28.10;34.04;;
45964;Laerm;31671;48.092;11.842;2023-03-14T07:29:14;29.45;28.07;35.13;;
45964;Laerm;31671;48.092;11.842;2023-03-14T07:31:40;29.60;27.88;32.32;;
45964;Laerm;31671;48.092;11.842;2023-03-14T07:34:06;29.88;28.03;34.43;;
45964;Laerm;31671;48.092;11.842;2023-03-14T07:36:35;29.44;28.00;38.51;;
45964;Laerm;31671;48.092;11.842;2023-03-14T07:39:02;29.59;28.07;32.67;;
45964;Laerm;31671;48.092;11.842;2023-03-14T07:41:40;29.90;27.86;35.31;;
45964;Laerm;31671;48.092;11.842;2023-03-14T07:44:24;33.90;27.89;53.09;;
45964;Laerm;31671;48.092;11.842;2023-03-14T07:46:50;43.19;28.10;66.58;;
45964;Laerm;31671;48.092;11.842;2023-03-14T07:49:15;29.85;28.01;37.52;;
45964;Laerm;31671;48.092;11.842;2023-03-14T07:51:41;30.08;27.81;46.36;;
45964;Laerm;31671;48.092;11.842;2023-03-14T07:54:07;30.30;28.16;35.01;;
45964;Laerm;31671;48.092;11.842;2023-03-14T07:56:33;29.66;28.14;35.10;;
45964;Laerm;31671;48.092;11.842;2023-03-14T07:58:58;30.02;28.27;39.66;;
45964;Laerm;31671;48.092;11.842;2023-03-14T08:01:24;29.88;28.06;39.82;;
45964;Laerm;31671;48.092;11.842;2023-03-14T08:03:50;29.92;28.30;37.73;;
45964;Laerm;31671;48.092;11.842;2023-03-14T08:06:15;29.94;28.08;34.07;;
45964;Laerm;31671;48.092;11.842;2023-03-14T08:08:41;29.56;28.13;34.15;;
45964;Laerm;31671;48.092;11.842;2023-03-14T08:11:07;29.86;28.10;43.73;;
45964;Laerm;31671;48.092;11.842;2023-03-14T08:13:33;29.81;28.00;33.43;;
45964;Laerm;31671;48.092;11.842;2023-03-14T08:15:58;29.46;27.71;38.31;;
45964;Laerm;31671;48.092;11.842;2023-03-14T08:18:24;29.58;28.12;36.13;;
45964;Laerm;31671;48.092;11.842;2023-03-14T08:20:50;29.56;27.93;34.01;;
45964;Laerm;31671;48.092;11.842;2023-03-14T08:23:15;29.73;27.75;33.36;;
45964;Laerm;31671;48.092;11.842;2023-03-14T08:25:41;29.94;28.03;35.37;;
45964;Laerm;31671;48.092;11.842;2023-03-14T08:28:07;29.57;28.08;40.10;;
45964;Laerm;31671;48.092;11.842;2023-03-14T08:30:32;29.51;28.18;32.01;;
45964;Laerm;31671;48.092;11.842;2023-03-14T08:32:58;29.83;28.21;37.77;;
45964;Laerm;31671;48.092;11.842;2023-03-14T08:35:25;29.46;28.05;38.05;;
45964;Laerm;31671;48.092;11.842;2023-03-14T08:37:50;29.57;27.91;32.96;;
45964;Laerm;31671;48.092;11.842;2023-03-14T08:40:16;29.47;27.98;34.81;;
45964;Laerm;31671;48.092;11.842;2023-03-14T08:42:42;29.57;28.15;34.79;;
45964;Laerm;31671;48.092;11.842;2023-03-14T08:45:08;29.56;27.97;36.44;;
45964;Laerm;31671;48.092;11.842;2023-03-14T08:47:34;30.45;27.99;49.96;;
45964;Laerm;31671;48.092;11.842;2023-03-14T08:50:00;30.88;28.09;52.06;;
45964;Laerm;31671;48.092;11.842;2023-03-14T08:52:26;29.41;28.08;32.12;;
45964;Laerm;31671;48.092;11.842;2023-03-14T08:54:51;29.45;27.82;31.12;;
45964;Laerm;31671;48.092;11.842;2023-03-14T08:57:17;29.43;27.98;34.44;;
45964;Laerm;31671;48.092;11.842;2023-03-14T08:59:43;29.45;28.06;33.05;;
45964;Laerm;31671;48.092;11.842;2023-03-14T09:02:10;29.74;28.10;37.58;;
45964;Laerm;31671;48.092;11.842;2023-03-14T09:04:36;29.78;28.02;34.50;;
45964;Laerm;31671;48.092;11.842;2023-03-14T09:07:02;29.61;27.61;37.64;;
45964;Laerm;31671;48.092;11.842;2023-03-14T09:09:27;29.48;27.79;32.16;;
45964;Laerm;31671;48.092;11.842;2023-03-14T09:11:54;30.00;27.90;40.35;;
45964;Laerm;31671;48.092;11.842;2023-03-14T09:14:19;30.18;28.07;46.14;;
45964;Laerm;31671;48.092;11.842;2023-03-14T09:16:45;30.21;27.96;38.05;;
45964;Laerm;31671;48.092;11.842;2023-03-14T09:19:11;29.45;27.93;32.78;;
45964;Laerm;31671;48.092;11.842;2023-03-14T09:21:37;29.39;27.96;32.16;;
45964;Laerm;31671;48.092;11.842;2023-03-14T09:24:02;29.54;28.08;36.46;;
45964;Laerm;31671;48.092;11.842;2023-03-14T09:26:28;29.72;27.98;41.78;;
45964;Laerm;31671;48.092;11.842;2023-03-14T09:28:54;29.39;27.96;33.86;;
45964;Laerm;31671;48.092;11.842;2023-03-14T09:31:19;29.58;28.03;33.02;;
45964;Laerm;31671;48.092;11.842;2023-03-14T09:33:45;29.51;27.80;41.41;;
45964;Laerm;31671;48.092;11.842;2023-03-14T09:36:11;29.59;28.16;36.90;;
45964;Laerm;31671;48.092;11.842;2023-03-14T09:38:37;29.53;27.74;36.73;;
45964;Laerm;31671;48.092;11.842;2023-03-14T09:41:03;29.62;28.21;36.76;;
45964;Laerm;31671;48.092;11.842;2023-03-14T09:43:37;32.44;28.11;50.17;;
45964;Laerm;31671;48.092;11.842;2023-03-14T09:46:03;32.00;27.90;52.43;;
45964;Laerm;31671;48.092;11.842;2023-03-14T09:48:29;30.10;27.93;48.90;;
45964;Laerm;31671;48.092;11.842;2023-03-14T09:50:56;31.70;28.74;41.06;;
45964;Laerm;31671;48.092;11.842;2023-03-14T09:53:24;33.72;28.52;51.34;;
45964;Laerm;31671;48.092;11.842;2023-03-14T09:55:51;30.63;28.13;45.72;;
45964;Laerm;31671;48.092;11.842;2023-03-14T09:58:19;33.69;27.91;51.10;;
45964;Laerm;31671;48.092;11.842;2023-03-14T10:00:45;34.93;27.74;54.17;;
45964;Laerm;31671;48.092;11.842;2023-03-14T10:05:37;33.05;28.15;48.59;;
45964;Laerm;31671;48.092;11.842;2023-03-14T10:08:04;33.75;28.27;52.44;;
45964;Laerm;31671;48.092;11.842;2023-03-14T10:10:30;32.03;27.98;47.56;;
45964;Laerm;31671;48.092;11.842;2023-03-14T10:13:14;37.96;28.21;57.64;;
45964;Laerm;31671;48.092;11.842;2023-03-14T10:15:40;29.95;27.90;44.62;;
45964;Laerm;31671;48.092;11.842;2023-03-14T10:18:10;29.58;28.16;39.25;;
45964;Laerm;31671;48.092;11.842;2023-03-14T10:20:37;31.14;28.04;47.71;;
45964;Laerm;31671;48.092;11.842;2023-03-14T10:23:07;30.37;27.97;45.59;;
45964;Laerm;31671;48.092;11.842;2023-03-14T10:25:45;31.27;27.89;50.74;;
45964;Laerm;31671;48.092;11.842;2023-03-14T10:28:22;29.61;28.15;38.06;;
45964;Laerm;31671;48.092;11.842;2023-03-14T10:30:48;29.71;28.15;34.69;;
45964;Laerm;31671;48.092;11.842;2023-03-14T10:33:27;29.93;27.99;40.27;;
45964;Laerm;31671;48.092;11.842;2023-03-14T10:36:03;32.51;28.06;50.95;;
45964;Laerm;31671;48.092;11.842;2023-03-14T10:38:31;29.52;28.19;38.44;;
45964;Laerm;31671;48.092;11.842;2023-03-14T10:40:57;30.99;28.05;46.99;;
45964;Laerm;31671;48.092;11.842;2023-03-14T10:43:25;32.22;28.25;49.70;;
45964;Laerm;31671;48.092;11.842;2023-03-14T10:45:56;34.63;28.29;54.63;;
45964;Laerm;31671;48.092;11.842;2023-03-14T10:48:34;37.31;28.43;55.43;;
45964;Laerm;31671;48.092;11.842;2023-03-14T10:51:07;31.73;28.64;45.86;;
45964;Laerm;31671;48.092;11.842;2023-03-14T10:53:38;38.70;28.69;61.11;;
45964;Laerm;31671;48.092;11.842;2023-03-14T10:56:05;34.78;28.95;54.22;;
45964;Laerm;31671;48.092;11.842;2023-03-14T10:58:33;31.17;29.02;47.39;;
45964;Laerm;31671;48.092;11.842;2023-03-14T11:03:26;31.16;29.05;45.51;;
45964;Laerm;31671;48.092;11.842;2023-03-14T11:05:56;34.07;29.21;53.82;;
45964;Laerm;31671;48.092;11.842;2023-03-14T11:13:37;35.36;28.88;64.07;;
45964;Laerm;31671;48.092;11.842;2023-03-14T11:18:51;41.61;28.99;64.34;;
45964;Laerm;31671;48.092;11.842;2023-03-14T11:31:52;31.46;28.48;46.29;;
45964;Laerm;31671;48.092;11.842;2023-03-14T11:36:50;30.39;28.48;48.00;;
45964;Laerm;31671;48.092;11.842;2023-03-14T11:39:17;30.59;28.55;47.15;;
45964;Laerm;31671;48.092;11.842;2023-03-14T11:41:47;30.25;28.89;34.43;;
45964;Laerm;31671;48.092;11.842;2023-03-14T11:44:32;30.73;29.12;48.68;;
45964;Laerm;31671;48.092;11.842;2023-03-14T11:47:00;30.68;28.94;38.71;;
45964;Laerm;31671;48.092;11.842;2023-03-14T11:49:32;30.38;28.92;33.96;;
45964;Laerm;31671;48.092;11.842;2023-03-14T11:52:03;30.55;29.14;41.08;;
45964;Laerm;31671;48.092;11.842;2023-03-14T11:57:16;30.45;29.09;34.11;;
45964;Laerm;31671;48.092;11.842;2023-03-14T11:59:45;30.39;29.16;34.37;;
45964;Laerm;31671;48.092;11.842;2023-03-14T12:02:22;30.59;29.25;35.12;;
45964;Laerm;31671;48.092;11.842;2023-03-14T12:07:29;30.90;29.14;43.57;;
45964;Laerm;31671;48.092;11.842;2023-03-14T12:09:59;31.22;29.10;38.62;;
45964;Laerm;31671;48.092;11.842;2023-03-14T12:12:25;31.49;29.14;44.73;;
45964;Laerm;31671;48.092;11.842;2023-03-14T12:14:53;41.77;29.37;64.03;;
45964;Laerm;31671;48.092;11.842;2023-03-14T12:17:53;42.42;29.29;63.50;;
45964;Laerm;31671;48.092;11.842;2023-03-14T12:20:18;32.04;29.31;48.17;;
45964;Laerm;31671;48.092;11.842;2023-03-14T12:22:46;43.85;29.27;67.78;;
45964;Laerm;31671;48.092;11.842;2023-03-14T12:25:18;42.16;29.29;67.39;;
45964;Laerm;31671;48.092;11.842;2023-03-14T12:27:48;37.82;29.49;57.52;;
45964;Laerm;31671;48.092;11.842;2023-03-14T12:30:36;40.09;29.39;63.80;;
45964;Laerm;31671;48.092;11.842;2023-03-14T12:38:00;34.31;29.36;57.89;;
45964;Laerm;31671;48.092;11.842;2023-03-14T12:40:32;41.29;29.23;67.38;;
45964;Laerm;31671;48.092;11.842;2023-03-14T12:42:59;45.90;29.30;65.59;;
45964;Laerm;31671;48.092;11.842;2023-03-14T12:45:28;40.57;29.58;61.79;;
45964;Laerm;31671;48.092;11.842;2023-03-14T12:50:37;37.04;29.46;63.24;;
45964;Laerm;31671;48.092;11.842;2023-03-14T13:00:44;41.84;29.22;64.38;;
45964;Laerm;31671;48.092;11.842;2023-03-14T13:05:51;44.48;29.58;66.44;;
45964;Laerm;31671;48.092;11.842;2023-03-14T13:08:31;39.77;29.26;63.00;;
45964;Laerm;31671;48.092;11.842;2023-03-14T13:10:57;43.57;29.70;65.23;;
45964;Laerm;31671;48.092;11.842;2023-03-14T13:13:24;35.94;29.28;59.91;;
45964;Laerm;31671;48.092;11.842;2023-03-14T13:15:53;37.85;29.38;63.70;;
45964;Laerm;31671;48.092;11.842;2023-03-14T13:23:36;36.15;29.35;54.38;;
45964;Laerm;31671;48.092;11.842;2023-03-14T13:26:02;38.02;29.33;60.11;;
45964;Laerm;31671;48.092;11.842;2023-03-14T13:28:29;32.39;29.37;56.13;;
45964;Laerm;31671;48.092;11.842;2023-03-14T13:30:59;34.56;29.51;56.15;;
45964;Laerm;31671;48.092;11.842;2023-03-14T13:33:25;43.18;29.27;69.11;;
45964;Laerm;31671;48.092;11.842;2023-03-14T13:36:00;41.09;29.39;64.79;;
45964;Laerm;31671;48.092;11.842;2023-03-14T13:38:27;46.39;29.05;70.19;;
45964;Laerm;31671;48.092;11.842;2023-03-14T13:40:54;31.54;29.29;53.60;;
45964;Laerm;31671;48.092;11.842;2023-03-14T13:43:23;47.49;29.37;70.25;;
45964;Laerm;31671;48.092;11.842;2023-03-14T13:45:51;41.89;29.03;63.16;;
45964;Laerm;31671;48.092;11.842;2023-03-14T13:48:17;43.84;29.29;67.77;;
45964;Laerm;31671;48.092;11.842;2023-03-14T13:50:44;53.48;28.88;76.34;;
45964;Laerm;31671;48.092;11.842;2023-03-14T13:53:11;46.47;29.73;68.23;;
45964;Laerm;31671;48.092;11.842;2023-03-14T13:55:37;41.99;29.37;65.60;;
45964;Laerm;31671;48.092;11.842;2023-03-14T13:58:03;43.27;29.34;72.96;;
45964;Laerm;31671;48.092;11.842;2023-03-14T14:00:29;46.57;29.49;67.91;;
45964;Laerm;31671;48.092;11.842;2023-03-14T14:02:55;35.30;29.36;53.39;;
45964;Laerm;31671;48.092;11.842;2023-03-14T14:05:22;34.73;28.98;57.60;;
45964;Laerm;31671;48.092;11.842;2023-03-14T14:07:48;41.14;29.26;67.84;;
45964;Laerm;31671;48.092;11.842;2023-03-14T14:10:14;36.75;28.88;60.12;;
45964;Laerm;31671;48.092;11.842;2023-03-14T14:12:45;42.84;29.01;66.92;;
45964;Laerm;31671;48.092;11.842;2023-03-14T14:15:16;48.45;28.54;71.23;;
45964;Laerm;31671;48.092;11.842;2023-03-14T14:17:44;47.25;28.99;71.34;;
45964;Laerm;31671;48.092;11.842;2023-03-14T14:20:20;35.82;28.63;58.53;;
45964;Laerm;31671;48.092;11.842;2023-03-14T14:22:47;36.58;28.41;59.37;;
45964;Laerm;31671;48.092;11.842;2023-03-14T14:25:13;48.52;28.58;69.87;;
45964;Laerm;31671;48.092;11.842;2023-03-14T14:27:41;55.12;28.38;75.99;;
45964;Laerm;31671;48.092;11.842;2023-03-14T14:32:42;40.80;28.35;66.72;;
45964;Laerm;31671;48.092;11.842;2023-03-14T14:35:09;41.31;28.35;68.88;;
45964;Laerm;31671;48.092;11.842;2023-03-14T14:37:43;42.73;28.10;64.18;;
45964;Laerm;31671;48.092;11.842;2023-03-14T14:40:10;43.46;28.79;68.41;;
45964;Laerm;31671;48.092;11.842;2023-03-14T14:42:38;45.67;29.32;70.95;;
45964;Laerm;31671;48.092;11.842;2023-03-14T14:45:05;52.37;28.93;75.78;;
45964;Laerm;31671;48.092;11.842;2023-03-14T14:47:32;51.75;29.92;71.78;;